KNGU/NGU METAR and TAF weather

Enter ICAO airport designator
Station Type Date Time Source
KNGU METAR 2022/01/19 18:59 UTC NOAA

KNGU 191859Z 23011G18KT 10SM CLR 14/M03 A3014 RMK AO2 SLP207 T01391028 $


Station Type Date Time Source
KNGU Decoded METAR 2022/01/19 18:59 UTC NOAA

Norfolk, Naval Air Station, VA, United States (KNGU) 36-56-01N 076-17-45W 8M
Jan 19, 2022 - 01:59 PM EST / 2022.01.19 1859 UTC
Wind: from the SW (230 degrees) at 13 MPH (11 KT) gusting to 21 MPH (18 KT):0
Visibility: 10 mile(s):0
Sky conditions: clear
Temperature: 57.0 F (13.9 C)
Dew Point: 27.0 F (-2.8 C)
Relative Humidity: 31%
Pressure (altimeter): 30.14 in. Hg (1020 hPa)
ob: KNGU 191859Z 23011G18KT 10SM CLR 14/M03 A3014 RMK AO2 SLP207 T01391028
cycle: 19

Station Type Date Time Source
KNGU TAF 2022/01/19 15:14 UTC NOAA

TAF KNGU 1915/2015 20011G18KT 9999 SCT100 BKN220 QNH3007INS
FM200700 23008KT 9999 FEW050 BKN100 BKN220 QNH3005INS T14/1918Z T07/2010Z FN20002

Example: see airport list